createdAt,value
2022-10-20T00:01:41.726Z,67.55
2022-10-20T00:04:12.571Z,67.73
2022-10-20T00:06:43.369Z,67.64
2022-10-20T00:09:14.321Z,67.63
2022-10-20T00:11:46.016Z,67.59
2022-10-20T00:14:16.874Z,67.48
2022-10-20T00:16:47.659Z,67.63
2022-10-20T00:19:18.438Z,67.63
2022-10-20T00:21:49.325Z,67.59
2022-10-20T00:24:20.870Z,67.78
2022-10-20T00:26:51.708Z,67.76
2022-10-20T00:29:22.509Z,67.70
2022-10-20T00:31:53.265Z,67.78
2022-10-20T00:34:24.079Z,67.79
2022-10-20T00:36:54.874Z,68.15
2022-10-20T00:39:25.651Z,67.96
2022-10-20T00:41:56.416Z,68.25
2022-10-20T00:44:50.085Z,68.01
2022-10-20T00:47:23.453Z,68.32
2022-10-20T00:49:54.460Z,68.22
2022-10-20T00:52:25.773Z,68.06
2022-10-20T00:54:56.614Z,68.31
2022-10-20T00:57:27.436Z,68.19
2022-10-20T00:59:58.547Z,68.21
2022-10-20T01:02:29.663Z,68.49
2022-10-20T01:05:00.746Z,68.71
2022-10-20T01:07:31.554Z,68.35
2022-10-20T01:10:03.590Z,68.50
2022-10-20T01:12:44.459Z,68.37
2022-10-20T01:15:26.189Z,68.40
2022-10-20T01:18:11.237Z,68.38
2022-10-20T01:20:53.257Z,68.90
2022-10-20T01:23:42.484Z,68.58
2022-10-20T01:26:43.519Z,68.68
2022-10-20T01:29:22.349Z,68.78
2022-10-20T01:32:00.750Z,68.74
2022-10-20T01:34:38.754Z,68.92
2022-10-20T01:37:28.301Z,68.68
2022-10-20T01:40:13.491Z,68.98
2022-10-20T01:42:47.296Z,69.12
2022-10-20T01:45:22.802Z,69.06
2022-10-20T01:47:54.961Z,69.17
2022-10-20T01:50:26.873Z,69.30
2022-10-20T01:52:59.971Z,69.36
2022-10-20T01:55:31.652Z,69.47
2022-10-20T01:58:25.638Z,69.56
2022-10-20T02:01:06.928Z,69.38
2022-10-20T02:03:46.396Z,69.72
2022-10-20T02:06:25.954Z,69.57
2022-10-20T02:08:59.907Z,69.69
2022-10-20T02:11:39.368Z,69.58
2022-10-20T02:14:13.745Z,69.60
2022-10-20T02:16:48.394Z,69.65
2022-10-20T02:19:23.915Z,69.32
2022-10-20T02:21:57.859Z,69.33
2022-10-20T02:24:33.493Z,69.27
2022-10-20T02:27:09.866Z,69.35
2022-10-20T02:29:45.940Z,69.54
2022-10-20T02:32:18.811Z,69.47
2022-10-20T02:34:50.421Z,69.60
2022-10-20T02:37:21.300Z,69.59
2022-10-20T02:39:52.186Z,69.65
2022-10-20T02:42:23.022Z,69.39
2022-10-20T02:44:56.041Z,69.39
2022-10-20T02:47:26.860Z,69.33
2022-10-20T02:49:57.701Z,69.32
2022-10-20T02:52:28.918Z,69.12
2022-10-20T02:54:59.761Z,69.17
2022-10-20T02:57:30.568Z,69.65
2022-10-20T03:00:01.457Z,69.46
2022-10-20T03:02:32.184Z,69.54
2022-10-20T03:05:02.987Z,69.15
2022-10-20T03:07:33.842Z,69.15
2022-10-20T03:10:05.222Z,69.37
2022-10-20T03:12:36.034Z,69.35
2022-10-20T03:15:07.945Z,69.06
2022-10-20T03:17:39.696Z,69.12
2022-10-20T03:20:12.206Z,69.29
2022-10-20T03:22:43.065Z,69.22
2022-10-20T03:25:14.016Z,69.49
2022-10-20T03:27:44.920Z,69.45
2022-10-20T03:30:15.718Z,69.29
2022-10-20T03:32:46.506Z,69.30
2022-10-20T03:35:17.665Z,69.30
2022-10-20T03:37:48.462Z,69.57
2022-10-20T03:40:19.534Z,69.31
2022-10-20T03:42:50.300Z,69.21
2022-10-20T03:45:21.424Z,69.50
2022-10-20T03:47:52.370Z,69.71
2022-10-20T03:50:23.716Z,69.32
2022-10-20T03:52:54.490Z,69.67
2022-10-20T03:55:25.259Z,69.35
2022-10-20T03:57:56.071Z,69.26
2022-10-20T04:00:27.197Z,69.71
2022-10-20T04:02:58.040Z,69.29
2022-10-20T04:05:28.848Z,69.20
2022-10-20T04:07:59.871Z,69.14
2022-10-20T04:10:30.909Z,69.35
2022-10-20T04:13:02.344Z,69.51
2022-10-20T04:15:33.551Z,69.22
2022-10-20T04:18:05.980Z,69.47
2022-10-20T04:20:39.344Z,69.57
2022-10-20T04:23:12.932Z,69.21
2022-10-20T04:25:47.677Z,69.37
2022-10-20T04:28:21.515Z,69.29
2022-10-20T04:30:52.362Z,69.47
2022-10-20T04:33:23.333Z,69.32
2022-10-20T04:36:06.568Z,69.53
2022-10-20T04:38:37.733Z,69.35
2022-10-20T04:41:08.711Z,69.53
2022-10-20T04:43:39.835Z,69.29
2022-10-20T04:46:15.824Z,69.41
2022-10-20T04:48:46.987Z,69.48
2022-10-20T04:51:18.466Z,69.40
2022-10-20T04:53:49.360Z,69.32
2022-10-20T04:56:22.389Z,69.67
2022-10-20T04:58:54.629Z,69.58
2022-10-20T05:01:27.570Z,69.63
2022-10-20T05:03:58.908Z,69.53
2022-10-20T05:06:31.420Z,69.50
2022-10-20T05:09:06.898Z,69.48
2022-10-20T05:11:39.112Z,69.71
2022-10-20T05:14:09.924Z,69.65
2022-10-20T05:16:40.982Z,69.80
2022-10-20T05:19:14.485Z,69.60
2022-10-20T05:21:45.848Z,69.60
2022-10-20T05:24:20.887Z,69.75
2022-10-20T05:26:55.096Z,69.61
2022-10-20T05:29:26.343Z,69.72
2022-10-20T05:31:57.165Z,69.76
2022-10-20T05:34:28.117Z,69.84
2022-10-20T05:36:58.982Z,69.94
2022-10-20T05:39:29.815Z,70.16
2022-10-20T05:42:00.691Z,69.98
2022-10-20T05:44:31.649Z,70.15
2022-10-20T05:47:02.439Z,69.78
2022-10-20T05:49:33.570Z,69.56
2022-10-20T05:52:04.428Z,69.56
2022-10-20T05:54:35.288Z,69.70
2022-10-20T05:57:06.160Z,69.47
2022-10-20T05:59:37.465Z,69.64
2022-10-20T06:02:09.881Z,69.54
2022-10-20T06:04:41.258Z,69.59
2022-10-20T06:07:12.224Z,69.58
2022-10-20T06:09:43.236Z,69.02
2022-10-20T06:12:14.136Z,68.95
2022-10-20T06:14:44.940Z,69.12
2022-10-20T06:17:15.730Z,69.23
2022-10-20T06:19:46.837Z,69.29
2022-10-20T06:22:17.794Z,69.57
2022-10-20T06:24:49.387Z,69.31
2022-10-20T06:27:20.168Z,68.99
2022-10-20T06:29:50.937Z,68.82
2022-10-20T06:32:21.749Z,68.10
2022-10-20T06:34:53.971Z,67.65
2022-10-20T06:37:24.744Z,66.39
2022-10-20T06:39:55.556Z,65.03
2022-10-20T06:42:26.310Z,63.82
2022-10-20T06:44:58.876Z,62.74
2022-10-20T06:47:33.166Z,61.39
2022-10-20T06:50:04.508Z,60.64
2022-10-20T06:52:35.530Z,59.47
2022-10-20T06:55:07.341Z,58.06
2022-10-20T06:57:38.155Z,57.09
2022-10-20T07:00:11.727Z,56.62
2022-10-20T07:02:42.683Z,56.02
2022-10-20T07:05:14.058Z,54.69
2022-10-20T07:07:45.459Z,53.45
2022-10-20T07:10:16.552Z,52.63
2022-10-20T07:12:47.466Z,52.52
2022-10-20T07:15:18.638Z,52.01
2022-10-20T07:17:50.004Z,51.25
2022-10-20T07:20:21.849Z,50.45
2022-10-20T07:22:52.654Z,49.77
2022-10-20T07:25:23.472Z,49.05
2022-10-20T07:27:55.422Z,48.63
2022-10-20T07:30:26.294Z,47.99
2022-10-20T07:32:57.477Z,47.79
2022-10-20T07:35:28.326Z,47.47
2022-10-20T07:37:59.504Z,47.25
2022-10-20T07:40:31.040Z,47.21
2022-10-20T07:43:02.187Z,46.58
2022-10-20T07:45:33.046Z,46.40
2022-10-20T07:48:04.415Z,45.89
2022-10-20T07:50:35.500Z,45.63
2022-10-20T07:53:07.594Z,45.08
2022-10-20T07:55:39.342Z,44.21
2022-10-20T07:58:10.430Z,44.13
2022-10-20T08:00:42.018Z,43.64
2022-10-20T08:03:16.430Z,42.83
2022-10-20T08:05:47.295Z,42.39
2022-10-20T08:08:18.309Z,41.61
2022-10-20T08:10:49.173Z,40.71
2022-10-20T08:13:21.136Z,39.31
2022-10-20T08:15:56.078Z,38.44
2022-10-20T08:18:27.189Z,37.72
2022-10-20T08:21:09.407Z,37.51
2022-10-20T08:23:44.006Z,37.49
2022-10-20T08:26:14.396Z,37.42
2022-10-20T08:28:45.306Z,37.54
2022-10-20T08:31:16.184Z,37.74
2022-10-20T08:33:52.135Z,38.24
2022-10-20T08:36:24.063Z,38.85
2022-10-20T08:38:56.538Z,39.02
2022-10-20T08:41:43.424Z,39.79
2022-10-20T08:44:26.129Z,40.27
2022-10-20T08:46:57.832Z,41.08
2022-10-20T08:49:31.987Z,41.34
2022-10-20T08:52:03.238Z,41.18
2022-10-20T08:54:36.110Z,41.03
2022-10-20T08:57:15.124Z,40.86
2022-10-20T08:59:46.466Z,41.09
2022-10-20T09:02:18.547Z,41.59
2022-10-20T09:04:54.688Z,41.93
2022-10-20T09:07:29.668Z,42.48
2022-10-20T09:10:13.310Z,42.66
2022-10-20T09:12:46.730Z,42.91
2022-10-20T09:15:21.509Z,43.26
2022-10-20T09:17:55.532Z,43.58
2022-10-20T09:20:30.468Z,44.47
2022-10-20T09:23:07.901Z,45.28
2022-10-20T09:25:48.936Z,45.61
2022-10-20T09:28:34.084Z,45.41
2022-10-20T09:31:24.303Z,45.45
2022-10-20T09:33:55.316Z,45.21
2022-10-20T09:36:31.332Z,44.90
2022-10-20T09:39:05.808Z,45.04
2022-10-20T09:41:37.089Z,44.97
2022-10-20T09:44:15.884Z,44.22
2022-10-20T09:46:51.704Z,43.73
2022-10-20T09:49:32.530Z,43.38
2022-10-20T09:52:05.669Z,43.49
2022-10-20T09:54:36.637Z,43.44
2022-10-20T09:57:16.424Z,42.85
2022-10-20T09:59:49.928Z,42.64
2022-10-20T10:02:33.252Z,42.51
2022-10-20T10:05:20.432Z,42.66
2022-10-20T10:08:01.845Z,42.62
2022-10-20T10:10:33.703Z,42.32
2022-10-20T10:15:40.185Z,42.00
2022-10-20T10:18:24.137Z,41.96
2022-10-20T10:21:02.752Z,41.91
2022-10-20T10:23:36.599Z,42.29
2022-10-20T10:26:47.263Z,42.45
2022-10-20T10:29:25.570Z,42.53
2022-10-20T10:32:01.041Z,42.67
2022-10-20T10:34:51.085Z,42.78
2022-10-20T10:37:21.997Z,42.19
2022-10-20T10:39:52.902Z,41.76
2022-10-20T10:42:37.406Z,41.46
2022-10-20T10:45:19.867Z,41.41
2022-10-20T10:48:09.983Z,41.29
2022-10-20T10:50:49.462Z,41.03
2022-10-20T10:53:32.168Z,41.24
2022-10-20T10:56:12.392Z,41.23
2022-10-20T10:58:50.362Z,41.06
2022-10-20T11:01:38.104Z,41.28
2022-10-20T11:04:53.710Z,41.09
2022-10-20T11:07:35.026Z,41.44
2022-10-20T11:10:11.991Z,41.61
2022-10-20T11:13:02.637Z,42.03
2022-10-20T11:15:47.358Z,42.25
2022-10-20T11:18:37.695Z,42.44
2022-10-20T11:21:20.001Z,42.57
2022-10-20T11:24:12.048Z,42.62
2022-10-20T11:26:46.045Z,42.64
2022-10-20T11:29:23.341Z,42.69
2022-10-20T11:31:59.333Z,43.04
2022-10-20T11:34:37.068Z,43.34
2022-10-20T11:37:27.329Z,43.64
2022-10-20T11:40:08.464Z,43.90
2022-10-20T11:42:44.925Z,44.05
2022-10-20T11:45:33.075Z,44.09
2022-10-20T11:48:13.964Z,44.03
2022-10-20T11:50:50.528Z,44.37
2022-10-20T11:53:51.486Z,44.50
2022-10-20T11:56:54.693Z,44.54
2022-10-20T11:59:43.130Z,44.86
2022-10-20T12:02:41.037Z,44.77
2022-10-20T12:05:31.312Z,44.62
2022-10-20T12:08:29.964Z,44.52
2022-10-20T12:11:11.116Z,44.64
2022-10-20T12:13:55.078Z,44.52
2022-10-20T12:17:02.872Z,44.82
2022-10-20T12:19:35.550Z,45.08
2022-10-20T12:22:27.569Z,45.22
2022-10-20T12:25:26.193Z,45.11
2022-10-20T12:28:28.032Z,45.41
2022-10-20T12:31:00.119Z,45.43
2022-10-20T12:33:59.287Z,45.51
2022-10-20T12:36:35.120Z,45.69
2022-10-20T12:39:30.297Z,45.88
2022-10-20T12:42:08.418Z,45.99
2022-10-20T12:44:45.921Z,46.10
2022-10-20T12:47:25.309Z,46.30
2022-10-20T12:50:00.514Z,46.00
2022-10-20T12:52:31.015Z,46.10
2022-10-20T12:55:07.372Z,46.08
2022-10-20T12:57:42.588Z,46.15
2022-10-20T13:00:37.606Z,45.97
2022-10-20T13:03:43.188Z,45.55
2022-10-20T13:06:43.372Z,45.53
2022-10-20T13:09:25.173Z,45.66
2022-10-20T13:12:06.152Z,45.84
2022-10-20T13:14:51.430Z,45.84
2022-10-20T13:17:44.471Z,45.64
2022-10-20T13:20:26.784Z,45.78
2022-10-20T13:25:37.468Z,46.37
2022-10-20T13:28:20.685Z,46.55
2022-10-20T13:31:17.855Z,46.86
2022-10-20T13:34:05.091Z,47.05
2022-10-20T13:36:50.063Z,47.03
2022-10-20T13:39:30.611Z,46.82
2022-10-20T13:42:12.192Z,46.89
2022-10-20T13:44:53.605Z,47.33
2022-10-20T13:47:43.772Z,47.54
2022-10-20T13:50:22.303Z,47.50
2022-10-20T13:52:57.050Z,47.72
2022-10-20T13:55:31.021Z,47.74
2022-10-20T13:58:09.371Z,47.76
2022-10-20T14:00:40.308Z,47.81
2022-10-20T14:03:19.603Z,47.77
2022-10-20T14:05:50.996Z,47.89
2022-10-20T14:08:23.727Z,47.71
2022-10-20T14:10:58.009Z,47.77
2022-10-20T14:13:34.505Z,47.97
2022-10-20T14:16:15.053Z,48.00
2022-10-20T14:18:46.009Z,47.99
2022-10-20T14:21:20.840Z,48.00
2022-10-20T14:23:53.175Z,47.88
2022-10-20T14:26:26.234Z,48.01
2022-10-20T14:28:58.219Z,48.19
2022-10-20T14:31:29.683Z,48.22
2022-10-20T14:34:00.781Z,48.00
2022-10-20T14:36:33.021Z,48.03
2022-10-20T14:39:04.457Z,48.01
2022-10-20T14:41:37.116Z,48.13
2022-10-20T14:44:20.399Z,48.17
2022-10-20T14:47:08.257Z,48.35
2022-10-20T14:49:43.432Z,48.36
2022-10-20T14:52:22.947Z,48.44
2022-10-20T14:54:54.330Z,48.65
2022-10-20T14:57:41.771Z,48.70
2022-10-20T15:00:32.091Z,48.74
2022-10-20T15:03:07.350Z,48.87
2022-10-20T15:05:42.830Z,48.93
2022-10-20T15:08:22.501Z,49.12
2022-10-20T15:10:54.022Z,49.25
2022-10-20T15:13:28.683Z,49.29
2022-10-20T15:16:02.378Z,49.39
2022-10-20T15:18:37.907Z,49.42
2022-10-20T15:21:12.087Z,49.31
2022-10-20T15:23:43.712Z,49.47
2022-10-20T15:26:16.305Z,49.55
2022-10-20T15:28:48.945Z,49.66
2022-10-20T15:31:24.307Z,49.60
2022-10-20T15:34:00.932Z,49.78
2022-10-20T15:36:40.372Z,49.76
2022-10-20T15:39:17.101Z,49.84
2022-10-20T15:41:50.330Z,49.88
2022-10-20T15:44:27.815Z,50.01
2022-10-20T15:47:00.513Z,50.08
2022-10-20T15:49:31.782Z,50.04
2022-10-20T15:52:02.880Z,50.04
2022-10-20T15:54:34.056Z,50.16
2022-10-20T15:57:05.311Z,50.18
2022-10-20T15:59:36.762Z,50.06
2022-10-20T16:02:12.623Z,50.06
2022-10-20T16:04:43.839Z,50.19
2022-10-20T16:07:14.969Z,50.31
2022-10-20T16:09:46.164Z,50.31
2022-10-20T16:12:17.416Z,50.42
2022-10-20T16:14:48.758Z,50.40
2022-10-20T16:17:20.057Z,50.45
2022-10-20T16:19:51.347Z,50.61
2022-10-20T16:22:22.578Z,50.47
2022-10-20T16:24:54.113Z,50.51
2022-10-20T16:27:25.283Z,50.55
2022-10-20T16:30:03.505Z,50.74
2022-10-20T16:32:35.623Z,50.72
2022-10-20T16:35:08.512Z,50.86
2022-10-20T16:37:40.281Z,50.69
2022-10-20T16:40:13.333Z,50.55
2022-10-20T16:42:45.050Z,50.52
2022-10-20T16:45:17.580Z,50.73
2022-10-20T16:47:48.740Z,51.01
2022-10-20T16:50:19.823Z,51.29
2022-10-20T16:52:51.062Z,51.48
2022-10-20T16:55:22.446Z,51.51
2022-10-20T16:57:56.192Z,51.61
2022-10-20T17:00:28.274Z,51.95
2022-10-20T17:02:59.975Z,51.73
2022-10-20T17:05:31.167Z,51.96
2022-10-20T17:08:05.727Z,51.95
2022-10-20T17:10:47.836Z,51.96
2022-10-20T17:13:19.311Z,52.01
2022-10-20T17:15:51.707Z,52.07
2022-10-20T17:18:24.705Z,52.06
2022-10-20T17:20:59.063Z,52.31
2022-10-20T17:23:32.370Z,52.40
2022-10-20T17:26:04.935Z,52.40
2022-10-20T17:28:37.899Z,52.47
2022-10-20T17:31:10.933Z,52.31
2022-10-20T17:33:43.048Z,52.17
2022-10-20T17:36:14.778Z,52.26
2022-10-20T17:38:46.177Z,52.36
2022-10-20T17:41:18.250Z,52.60
2022-10-20T17:43:49.816Z,52.53
2022-10-20T17:46:22.525Z,52.41
2022-10-20T17:48:53.815Z,52.38
2022-10-20T17:51:29.128Z,52.38
2022-10-20T17:54:03.856Z,52.40
2022-10-20T17:56:37.200Z,52.53
2022-10-20T17:59:09.673Z,52.62
2022-10-20T18:01:42.584Z,52.91
2022-10-20T18:04:15.601Z,52.97
2022-10-20T18:06:48.001Z,53.02
2022-10-20T18:09:20.235Z,53.11
2022-10-20T18:11:52.488Z,53.20
2022-10-20T18:14:24.153Z,53.44
2022-10-20T18:16:55.595Z,53.40
2022-10-20T18:19:27.742Z,53.65
2022-10-20T18:21:59.264Z,53.88
2022-10-20T18:24:30.900Z,53.85
2022-10-20T18:27:02.027Z,54.10
2022-10-20T18:29:33.513Z,54.05
2022-10-20T18:32:04.625Z,54.22
2022-10-20T18:34:37.916Z,54.36
2022-10-20T18:37:08.996Z,54.44
2022-10-20T18:39:40.025Z,54.55
2022-10-20T18:42:11.999Z,54.58
2022-10-20T18:44:43.080Z,54.83
2022-10-20T18:47:15.622Z,55.03
2022-10-20T18:49:46.901Z,55.23
2022-10-20T18:52:18.083Z,55.41
2022-10-20T18:54:49.735Z,55.41
2022-10-20T18:57:20.849Z,55.56
2022-10-20T18:59:53.563Z,55.64
2022-10-20T19:02:27.060Z,55.82
2022-10-20T19:04:58.498Z,55.78
2022-10-20T19:07:29.558Z,55.93
2022-10-20T19:10:00.659Z,56.19
2022-10-20T19:12:31.842Z,56.44
2022-10-20T19:15:02.932Z,56.36
2022-10-20T19:17:35.841Z,56.38
2022-10-20T19:20:08.235Z,56.54
2022-10-20T19:22:39.810Z,56.54
2022-10-20T19:25:15.112Z,56.67
2022-10-20T19:27:46.212Z,56.58
2022-10-20T19:30:17.611Z,56.77
2022-10-20T19:32:51.683Z,56.77
2022-10-20T19:35:23.003Z,56.86
2022-10-20T19:37:54.090Z,56.87
2022-10-20T19:40:27.651Z,56.94
2022-10-20T19:43:01.112Z,57.05
2022-10-20T19:45:51.352Z,57.21
2022-10-20T19:48:44.452Z,57.30
2022-10-20T19:54:39.577Z,57.34
2022-10-20T19:57:10.663Z,57.29
2022-10-20T19:59:41.842Z,57.36
2022-10-20T20:02:14.828Z,57.50
2022-10-20T20:04:48.592Z,57.49
2022-10-20T20:07:19.759Z,57.46
2022-10-20T20:09:51.835Z,57.43
2022-10-20T20:12:23.132Z,57.59
2022-10-20T20:15:02.264Z,57.70
2022-10-20T20:17:46.845Z,57.64
2022-10-20T20:20:18.613Z,57.79
2022-10-20T20:22:50.093Z,57.80
2022-10-20T20:25:21.491Z,57.69
2022-10-20T20:27:54.832Z,57.91
2022-10-20T20:30:26.363Z,57.90
2022-10-20T20:32:57.496Z,58.08
2022-10-20T20:35:29.189Z,58.05
2022-10-20T20:38:00.279Z,58.06
2022-10-20T20:40:32.290Z,58.22
2022-10-20T20:43:03.694Z,58.26
2022-10-20T20:45:35.440Z,58.27
2022-10-20T20:48:06.948Z,58.48
2022-10-20T20:50:38.428Z,58.49
2022-10-20T20:53:09.747Z,58.44
2022-10-20T20:55:40.892Z,58.60
2022-10-20T20:58:12.028Z,58.65
2022-10-20T21:00:43.288Z,58.61
2022-10-20T21:03:14.324Z,58.61
2022-10-20T21:05:45.442Z,58.57
2022-10-20T21:08:16.945Z,58.55
2022-10-20T21:10:48.457Z,58.77
2022-10-20T21:13:19.632Z,58.70
2022-10-20T21:15:50.778Z,58.62
2022-10-20T21:18:21.866Z,58.84
2022-10-20T21:20:52.943Z,58.80
2022-10-20T21:23:24.054Z,58.82
2022-10-20T21:25:55.120Z,58.88
2022-10-20T21:28:26.163Z,58.75
2022-10-20T21:31:00.821Z,58.91
2022-10-20T21:33:32.238Z,59.07
2022-10-20T21:36:05.115Z,58.98
2022-10-20T21:38:37.798Z,59.18
2022-10-20T21:41:11.741Z,59.23
2022-10-20T21:43:45.207Z,59.19
2022-10-20T21:46:19.784Z,59.36
2022-10-20T21:48:52.591Z,59.37
2022-10-20T21:51:26.502Z,59.43
2022-10-20T21:54:00.163Z,59.53
2022-10-20T21:56:33.277Z,59.39
2022-10-20T21:59:04.683Z,59.43
2022-10-20T22:01:36.035Z,59.50
2022-10-20T22:04:07.194Z,59.30
2022-10-20T22:06:39.785Z,59.30
2022-10-20T22:09:11.902Z,59.18
2022-10-20T22:11:45.058Z,59.36
2022-10-20T22:14:16.233Z,59.40
2022-10-20T22:16:47.462Z,59.60
2022-10-20T22:19:21.006Z,59.61
2022-10-20T22:21:53.508Z,59.64
2022-10-20T22:24:25.104Z,59.74
2022-10-20T22:26:56.266Z,59.65
2022-10-20T22:29:29.330Z,59.75
2022-10-20T22:32:00.514Z,59.82
2022-10-20T22:34:31.824Z,59.91
2022-10-20T22:37:02.930Z,60.09
2022-10-20T22:39:34.043Z,59.90
2022-10-20T22:42:05.112Z,60.08
2022-10-20T22:44:36.339Z,60.23
2022-10-20T22:47:07.437Z,60.09
2022-10-20T22:49:38.585Z,60.22
2022-10-20T22:52:09.740Z,60.17
2022-10-20T22:54:40.846Z,60.52
2022-10-20T22:57:11.958Z,60.60
2022-10-20T22:59:42.999Z,60.55
2022-10-20T23:02:14.088Z,60.60
2022-10-20T23:04:45.432Z,60.78
2022-10-20T23:07:16.591Z,60.68
2022-10-20T23:09:48.038Z,60.47
2022-10-20T23:12:19.069Z,60.71
2022-10-20T23:14:50.086Z,60.57
2022-10-20T23:17:21.159Z,60.72
2022-10-20T23:19:52.207Z,60.63
2022-10-20T23:22:23.241Z,60.86
2022-10-20T23:24:54.286Z,60.91
2022-10-20T23:27:25.313Z,60.89
2022-10-20T23:29:56.339Z,60.89
2022-10-20T23:32:27.489Z,61.06
2022-10-20T23:34:58.824Z,61.16
2022-10-20T23:37:30.291Z,61.27
2022-10-20T23:40:01.436Z,61.32
2022-10-20T23:42:32.491Z,61.15
2022-10-20T23:45:03.806Z,61.30
2022-10-20T23:47:34.984Z,61.40
2022-10-20T23:50:06.913Z,61.54
2022-10-20T23:55:14.645Z,61.53
2022-10-20T23:57:46.733Z,61.82
